Time;durP1;ratioP1;P1;durP2;ratioP2;P2;SDS_P1;SDS_P2;PMS_P1;PMS_P2;Temp;Humidity;BMP_temperature;BMP_pressure;BME280_temperature;BME280_humidity;BME280_pressure;Samples;Min_cycle;Max_cycle;Signal;HPM_P1;HPM_P2
2021/12/12 00:02:19;;;;;;;14.60;8.70;;;;;;;0.94;69.25;99667.97;5069208;28;20290;-66
2021/12/12 00:04:53;;;;;;;13.88;9.93;;;;;;;0.91;69.03;99676.69;5069255;28;20178;-66
2021/12/12 00:07:27;;;;;;;14.57;9.60;;;;;;;0.91;68.71;99674.09;5069049;28;20049;-66
2021/12/12 00:10:04;;;;;;;12.60;9.10;;;;;;;0.91;68.87;99681.91;5068854;28;20297;-66
2021/12/12 00:12:41;;;;;;;13.35;10.13;;;;;;;0.91;68.75;99689.75;5071557;28;20052;-66
2021/12/12 00:15:15;;;;;;;14.30;9.85;;;;;;;0.91;68.94;99694.09;5109159;28;20053;-66
2021/12/12 00:17:48;;;;;;;15.30;9.83;;;;;;;0.93;69.29;99700.16;5109270;28;20039;-66
2021/12/12 00:20:25;;;;;;;14.15;11.38;;;;;;;0.90;69.06;99697.59;5108832;28;20040;-66
2021/12/12 00:22:59;;;;;;;12.73;8.50;;;;;;;0.91;68.89;99696.69;5108973;28;20208;-67
2021/12/12 00:25:36;;;;;;;13.43;9.23;;;;;;;0.87;68.73;99695.88;5109180;28;20040;-66
2021/12/12 00:28:09;;;;;;;12.93;9.73;;;;;;;0.90;68.88;99685.41;5109227;28;20047;-67
2021/12/12 00:30:43;;;;;;;16.38;10.75;;;;;;;0.90;68.65;99684.53;5108895;28;20040;-67
2021/12/12 00:33:15;;;;;;;13.05;10.32;;;;;;;0.91;68.57;99694.97;5108054;28;20178;-66
2021/12/12 00:35:49;;;;;;;14.35;9.55;;;;;;;0.92;68.83;99691.47;5108737;28;20051;-66
2021/12/12 00:38:26;;;;;;;14.77;10.23;;;;;;;0.89;68.47;99703.69;5108766;28;20036;-66
2021/12/12 00:41:04;;;;;;;15.98;11.13;;;;;;;0.89;68.40;99703.69;5108608;28;20145;-66
2021/12/12 00:43:41;;;;;;;13.25;9.38;;;;;;;0.90;68.90;99701.06;5108773;28;20047;-66
2021/12/12 00:46:15;;;;;;;14.18;8.88;;;;;;;0.91;69.00;99715.84;5108492;28;20040;-66
2021/12/12 00:48:49;;;;;;;17.30;11.30;;;;;;;0.93;69.11;99719.28;5108728;28;20292;-66
2021/12/12 00:51:27;;;;;;;14.00;9.65;;;;;;;0.45;68.61;99636.31;5108629;28;20055;-65
2021/12/12 00:54:00;;;;;;;16.25;10.73;;;;;;;0.91;68.80;99741.06;5108680;28;20044;-66
2021/12/12 00:56:34;;;;;;;15.85;11.05;;;;;;;0.91;68.87;99723.66;5108364;28;20043;-66
2021/12/12 00:59:07;;;;;;;12.40;9.30;;;;;;;-0.88;68.59;99454.28;5108542;28;20047;-66
2021/12/12 01:01:44;;;;;;;14.82;11.20;;;;;;;0.92;68.86;99724.53;5106911;28;20047;-66
2021/12/12 01:04:20;;;;;;;12.70;9.32;;;;;;;0.92;68.66;99727.13;5107452;28;20036;-67
2021/12/12 01:06:55;;;;;;;15.18;9.73;;;;;;;0.93;68.85;99734.94;5108485;28;20063;-66
2021/12/12 01:09:34;;;;;;;13.23;9.60;;;;;;;0.91;68.50;99733.22;5108441;28;20040;-65
2021/12/12 01:12:11;;;;;;;11.85;9.13;;;;;;;0.62;68.69;99691.78;5108054;28;20051;-65
2021/12/12 01:14:48;;;;;;;25.63;11.07;;;;;;;-0.10;68.80;99571.66;5107890;28;20320;-67
2021/12/12 01:17:23;;;;;;;12.05;8.75;;;;;;;0.94;69.32;99754.94;5108258;28;20040;-67
2021/12/12 01:19:59;;;;;;;14.85;10.43;;;;;;;0.90;69.19;99742.81;5108041;28;20040;-67
2021/12/12 01:22:36;;;;;;;12.95;9.75;;;;;;;-0.40;68.64;99554.56;5108152;28;20040;-66
2021/12/12 01:25:14;;;;;;;14.25;9.35;;;;;;;0.90;69.03;99747.16;5108128;28;20043;-66
2021/12/12 01:27:49;;;;;;;16.48;10.75;;;;;;;0.91;69.29;99744.53;5107839;28;20047;-66
2021/12/12 01:30:23;;;;;;;14.50;11.00;;;;;;;0.92;69.03;99748.88;5107790;28;20040;-66
2021/12/12 01:32:56;;;;;;;12.00;8.32;;;;;;;0.91;69.43;99757.59;5107993;28;20044;-66
2021/12/12 01:35:29;;;;;;;11.95;8.02;;;;;;;0.94;69.69;99759.31;5107638;28;20318;-66
2021/12/12 01:40:59;;;;;;;12.98;9.00;;;;;;;0.92;69.33;99759.31;5107563;28;20036;-66
2021/12/12 01:43:40;;;;;;;11.20;8.35;;;;;;;0.91;68.40;99754.13;5107455;28;20047;-66
2021/12/12 01:46:19;;;;;;;9.23;6.93;;;;;;;0.91;68.66;99752.38;5107744;28;20059;-66
2021/12/12 01:48:54;;;;;;;10.32;6.97;;;;;;;0.89;68.53;99756.75;5107409;28;20047;-66
2021/12/12 01:51:29;;;;;;;8.88;7.38;;;;;;;0.90;68.73;99762.81;5107302;28;20040;-66
2021/12/12 01:54:07;;;;;;;8.73;7.38;;;;;;;0.91;68.83;99765.41;5107573;28;20036;-67
2021/12/12 01:56:49;;;;;;;10.27;7.75;;;;;;;0.92;68.43;99767.16;5107230;28;20043;-67
2021/12/12 01:59:26;;;;;;;10.07;7.13;;;;;;;0.90;68.32;99762.81;5106796;28;20036;-67
2021/12/12 02:02:02;;;;;;;9.85;7.53;;;;;;;0.92;68.16;99764.53;5107025;28;20051;-66
2021/12/12 02:04:37;;;;;;;10.65;7.72;;;;;;;0.93;68.58;99762.78;5107286;28;20047;-67
2021/12/12 02:07:14;;;;;;;9.93;6.97;;;;;;;0.92;68.22;99767.16;5107314;28;20284;-67
2021/12/12 02:09:47;;;;;;;9.88;8.13;;;;;;;0.92;68.30;99772.38;5106990;28;20039;-67
2021/12/12 02:12:22;;;;;;;8.02;6.22;;;;;;;0.92;68.06;99768.91;5106488;28;20043;-67
2021/12/12 02:14:58;;;;;;;8.82;6.30;;;;;;;0.90;67.63;99779.34;5106985;28;20047;-66
2021/12/12 02:17:38;;;;;;;9.88;6.82;;;;;;;0.91;67.39;99775.00;5106829;28;20036;-66
2021/12/12 02:20:19;;;;;;;9.50;6.55;;;;;;;0.92;67.33;99784.56;5106759;28;20047;-66
2021/12/12 02:23:04;;;;;;;7.88;6.38;;;;;;;0.89;66.48;99782.84;5105826;28;20039;-66
2021/12/12 02:37:06;;;;;;;6.50;4.78;;;;;;;0.82;66.08;99795.94;5106436;28;20319;-66
2021/12/12 02:39:41;;;;;;;8.50;5.65;;;;;;;0.82;65.89;99795.94;5106675;28;20051;-66
2021/12/12 02:42:20;;;;;;;7.78;5.55;;;;;;;0.82;65.26;99794.22;5105456;28;20323;-66
2021/12/12 02:44:57;;;;;;;10.32;5.90;;;;;;;0.82;65.49;99793.34;5106316;28;20292;-66
2021/12/12 02:47:33;;;;;;;17.85;6.63;;;;;;;0.82;65.76;99796.81;5106231;28;20040;-66
2021/12/12 02:50:13;;;;;;;6.78;5.03;;;;;;;0.83;64.69;99805.50;5106247;28;20216;-66
2021/12/12 02:52:50;;;;;;;7.05;4.97;;;;;;;0.82;64.60;99806.38;5106216;28;20311;-66
2021/12/12 02:55:27;;;;;;;7.95;6.07;;;;;;;0.81;64.62;99807.25;5106174;28;20039;-67
2021/12/12 02:58:01;;;;;;;8.57;5.60;;;;;;;0.80;64.92;99803.78;5088858;28;20043;-66
2021/12/12 03:00:38;;;;;;;9.55;6.22;;;;;;;0.80;64.94;99815.97;5106008;28;20252;-66
2021/12/12 03:03:11;;;;;;;10.55;6.85;;;;;;;0.82;65.10;99809.00;5106163;28;20326;-66
2021/12/12 03:05:47;;;;;;;7.25;5.25;;;;;;;0.82;64.99;99812.47;5105439;28;20220;-66
2021/12/12 03:08:19;;;;;;;7.50;4.97;;;;;;;0.83;65.49;99821.16;5105865;28;20227;-66
2021/12/12 03:10:56;;;;;;;6.57;5.32;;;;;;;0.84;64.30;99820.28;5105853;28;20085;-66
2021/12/12 03:13:28;;;;;;;8.35;6.32;;;;;;;0.84;65.68;99817.69;5105671;28;20064;-66
2021/12/12 03:16:00;;;;;;;7.45;5.53;;;;;;;0.81;65.50;99810.75;5105766;28;20063;-66
2021/12/12 03:18:39;;;;;;;6.25;5.35;;;;;;;0.80;64.77;99811.63;5104967;28;20350;-66
2021/12/12 03:21:16;;;;;;;7.35;5.35;;;;;;;0.78;64.84;99809.91;5105701;28;20043;-66
2021/12/12 03:23:52;;;;;;;7.65;4.78;;;;;;;0.11;65.42;99714.81;5104856;28;20089;-66
2021/12/12 03:26:27;;;;;;;6.88;5.20;;;;;;;0.79;65.26;99837.72;5105907;28;20292;-66
2021/12/12 03:29:00;;;;;;;6.55;4.95;;;;;;;0.80;65.79;99808.16;5105146;28;20292;-66
2021/12/12 03:31:35;;;;;;;7.50;5.15;;;;;;;0.81;65.79;99809.88;5105867;28;20040;-66
2021/12/12 03:34:10;;;;;;;7.45;5.10;;;;;;;0.82;65.92;99811.59;5105871;28;20292;-66
2021/12/12 03:36:44;;;;;;;6.47;5.47;;;;;;;0.78;65.33;99816.00;5105833;28;20036;-66
2021/12/12 03:39:21;;;;;;;9.02;6.35;;;;;;;0.79;65.95;99817.72;5105867;28;20293;-66
2021/12/12 03:41:57;;;;;;;7.07;5.20;;;;;;;0.78;65.32;99813.38;5105779;28;20040;-66
2021/12/12 03:44:32;;;;;;;8.15;5.85;;;;;;;0.79;65.56;99804.66;5105635;28;20062;-66
2021/12/12 03:47:08;;;;;;;7.72;5.50;;;;;;;0.80;65.31;99802.94;5105024;28;20048;-66
2021/12/12 03:49:40;;;;;;;8.27;5.47;;;;;;;-0.89;65.83;99509.78;5105436;28;20040;-66
2021/12/12 03:52:15;;;;;;;5.82;4.70;;;;;;;0.81;65.60;99804.66;5105616;28;20044;-66
2021/12/12 03:54:49;;;;;;;8.00;5.68;;;;;;;0.77;65.71;99800.34;5105277;28;20044;-66
2021/12/12 03:57:23;;;;;;;8.97;5.90;;;;;;;0.77;65.34;99797.72;5105323;28;20085;-66
2021/12/12 03:59:52;;;;;;;9.65;5.22;;;;;;;0.78;65.88;99782.06;5105598;28;20095;-66
2021/12/12 04:02:22;;;;;;;6.72;5.35;;;;;;;0.79;65.76;99788.16;5105517;28;20118;-66
2021/12/12 04:04:52;;;;;;;7.38;5.15;;;;;;;0.80;66.00;99787.28;5105454;28;20082;-65
2021/12/12 04:07:24;;;;;;;8.65;7.05;;;;;;;0.81;66.27;99826.41;5105494;28;20086;-66
2021/12/12 04:09:53;;;;;;;9.38;5.40;;;;;;;0.53;65.68;99751.84;5104965;28;20064;-66
2021/12/12 04:12:24;;;;;;;13.80;8.98;;;;;;;0.80;65.77;99810.75;5105162;28;20044;-66
2021/12/12 04:14:55;;;;;;;11.02;7.53;;;;;;;0.82;66.12;99809.88;5105250;28;20058;-66
2021/12/12 04:17:31;;;;;;;7.20;5.40;;;;;;;0.84;66.40;99802.88;5105199;28;20103;-66
2021/12/12 04:20:08;;;;;;;6.90;4.95;;;;;;;0.57;65.92;99759.63;5105417;28;20040;-66
2021/12/12 04:22:41;;;;;;;8.55;6.05;;;;;;;0.85;66.40;99808.97;5105068;28;20058;-66
2021/12/12 04:25:13;;;;;;;8.07;5.47;;;;;;;0.86;66.13;99811.56;5105003;28;20284;-66
2021/12/12 04:27:47;;;;;;;7.32;5.38;;;;;;;0.84;65.91;99818.53;5105323;28;20040;-66
2021/12/12 04:30:23;;;;;;;11.57;5.20;;;;;;;0.86;66.40;99818.53;5105108;28;20296;-66
2021/12/12 04:32:55;;;;;;;8.63;5.00;;;;;;;0.83;66.31;99816.81;5105282;28;20045;-66
2021/12/12 04:35:28;;;;;;;8.60;5.53;;;;;;;0.86;66.24;99816.78;5106993;28;20062;-66
2021/12/12 04:38:03;;;;;;;8.65;5.70;;;;;;;0.86;66.46;99827.22;5108810;28;20089;-66
2021/12/12 04:40:37;;;;;;;6.65;5.43;;;;;;;0.86;66.39;99824.63;5108660;28;20044;-66
2021/12/12 04:43:11;;;;;;;8.43;5.63;;;;;;;0.83;66.37;99827.25;5108622;28;20047;-66
2021/12/12 04:46:03;;;;;;;8.25;5.50;;;;;;;0.86;66.01;99829.84;5108650;28;20428;-66
2021/12/12 04:51:42;;;;;;;8.10;4.72;;;;;;;0.86;66.14;99823.75;5107808;28;20350;-66
2021/12/12 04:54:22;;;;;;;7.72;5.78;;;;;;;0.89;65.65;99837.63;5108511;28;20211;-66
2021/12/12 04:57:00;;;;;;;6.45;5.03;;;;;;;0.85;65.91;99835.94;5108485;28;20085;-66
2021/12/12 04:59:42;;;;;;;9.35;5.95;;;;;;;0.88;65.92;99832.44;5108639;28;20089;-66
2021/12/12 05:02:20;;;;;;;6.15;4.93;;;;;;;0.83;65.72;99835.09;5108543;28;20085;-66
2021/12/12 05:04:58;;;;;;;8.57;5.57;;;;;;;0.82;66.06;99822.91;5107673;28;20333;-66
2021/12/12 05:07:37;;;;;;;8.05;5.13;;;;;;;0.80;65.96;99855.97;5107630;28;20063;-66
2021/12/12 05:10:15;;;;;;;7.20;5.43;;;;;;;0.80;66.35;99863.81;5107312;28;20301;-66
2021/12/12 05:12:51;;;;;;;7.72;5.13;;;;;;;0.76;66.06;99864.72;5107922;28;20075;-66
2021/12/12 05:15:31;;;;;;;7.00;5.25;;;;;;;0.26;65.74;99790.28;5108301;28;20051;-66
2021/12/12 05:18:07;;;;;;;9.85;5.50;;;;;;;0.74;66.53;99882.13;5107975;28;20086;-66
2021/12/12 05:20:44;;;;;;;6.85;5.47;;;;;;;0.72;66.29;99883.88;5108213;28;20044;-66
2021/12/12 05:23:20;;;;;;;10.82;5.22;;;;;;;0.68;66.54;99876.94;5108130;28;20235;-66
2021/12/12 05:25:57;;;;;;;7.97;5.68;;;;;;;0.64;66.14;99877.84;5108128;28;20243;-66
2021/12/12 05:28:33;;;;;;;7.05;4.65;;;;;;;0.65;66.46;99871.75;5107296;28;20043;-66
2021/12/12 05:31:12;;;;;;;9.68;6.03;;;;;;;0.64;66.46;99869.16;5108040;28;20280;-66
2021/12/12 05:33:45;;;;;;;9.63;6.10;;;;;;;0.63;67.21;99883.06;5107952;28;20089;-66
2021/12/12 05:36:18;;;;;;;11.15;5.10;;;;;;;0.62;67.21;99890.03;5107166;28;20055;-66
2021/12/12 05:38:50;;;;;;;8.48;5.70;;;;;;;0.58;66.55;99886.56;5106864;28;20296;-66
2021/12/12 05:41:23;;;;;;;7.40;5.88;;;;;;;0.57;66.53;99886.56;5107757;28;20040;-66
2021/12/12 05:43:57;;;;;;;10.05;5.40;;;;;;;0.58;66.86;99885.69;5107447;28;20040;-66
2021/12/12 05:46:31;;;;;;;7.63;5.17;;;;;;;0.55;66.68;99881.38;5106715;28;20040;-65
2021/12/12 05:49:04;;;;;;;8.25;4.93;;;;;;;0.56;66.56;99887.47;5107417;28;20040;-66
2021/12/12 05:51:37;;;;;;;8.07;5.07;;;;;;;0.53;66.50;99882.25;5107662;28;20055;-66
2021/12/12 05:54:10;;;;;;;6.30;4.95;;;;;;;0.53;66.50;99871.81;5107164;28;20044;-66
2021/12/12 05:56:42;;;;;;;6.50;5.28;;;;;;;0.51;66.58;99882.28;5107494;28;20065;-66
2021/12/12 05:59:15;;;;;;;7.95;5.68;;;;;;;0.50;66.55;99884.88;5107147;28;20280;-66
2021/12/12 06:01:50;;;;;;;8.18;5.90;;;;;;;-0.46;66.57;99713.44;5107449;28;20097;-66
2021/12/12 06:04:23;;;;;;;7.47;5.90;;;;;;;0.52;66.73;99890.97;5107306;28;20043;-66
2021/12/12 06:06:55;;;;;;;7.80;4.97;;;;;;;0.54;66.71;99886.59;5106830;28;20243;-66
2021/12/12 06:09:27;;;;;;;8.13;5.18;;;;;;;0.55;66.80;99890.94;5106966;28;20243;-66
2021/12/12 06:12:01;;;;;;;8.38;5.95;;;;;;;0.51;66.66;99895.31;5107206;28;20044;-66
2021/12/12 06:14:34;;;;;;;8.55;5.75;;;;;;;0.54;66.61;99878.78;5106975;28;20121;-66
2021/12/12 06:17:11;;;;;;;6.90;5.40;;;;;;;0.50;66.56;99885.75;5106866;28;20349;-66
2021/12/12 06:19:45;;;;;;;9.77;6.55;;;;;;;0.51;67.01;99889.22;5106041;28;20074;-66
2021/12/12 06:22:17;;;;;;;10.77;6.47;;;;;;;0.49;66.99;99898.81;5106725;28;20208;-66
2021/12/12 06:24:50;;;;;;;9.30;7.53;;;;;;;-0.22;66.88;99781.03;5106592;28;20093;-66
2021/12/12 06:27:22;;;;;;;8.80;6.47;;;;;;;0.51;66.79;99884.88;5107010;28;20046;-66
2021/12/12 06:29:53;;;;;;;10.10;5.80;;;;;;;0.51;66.94;99876.19;5106851;28;20044;-66
2021/12/12 06:32:23;;;;;;;7.55;5.90;;;;;;;0.51;66.91;99881.41;5106495;28;20056;-66
2021/12/12 06:34:52;;;;;;;7.32;5.55;;;;;;;0.51;66.92;99881.41;5106388;28;20097;-66
2021/12/12 06:37:21;;;;;;;8.55;6.22;;;;;;;0.51;66.87;99890.09;5106742;28;20044;-66
2021/12/12 06:39:51;;;;;;;8.95;5.82;;;;;;;0.53;66.72;99890.09;5106720;28;20082;-66
2021/12/12 06:42:22;;;;;;;9.35;6.18;;;;;;;0.56;66.63;99890.06;5106832;28;20050;-66
2021/12/12 06:44:51;;;;;;;9.05;5.78;;;;;;;0.54;66.47;99892.69;5106472;28;20048;-66
2021/12/12 06:47:22;;;;;;;7.95;6.30;;;;;;;0.57;66.43;99889.19;5106533;28;20066;-66
2021/12/12 06:49:51;;;;;;;9.75;6.28;;;;;;;0.59;66.57;99895.25;5105507;28;20040;-66
2021/12/12 06:52:22;;;;;;;7.93;5.63;;;;;;;0.60;66.35;99889.16;5106189;28;20061;-66
2021/12/12 06:54:53;;;;;;;8.50;6.63;;;;;;;0.63;66.47;99896.09;5106126;28;20051;-66
2021/12/12 06:57:21;;;;;;;8.40;6.05;;;;;;;0.66;66.63;99894.34;5106378;28;20032;-66
2021/12/12 06:59:52;;;;;;;7.65;5.47;;;;;;;0.69;66.50;99901.28;5106368;28;20066;-66
2021/12/12 07:02:24;;;;;;;8.70;5.53;;;;;;;0.69;66.32;99903.91;5106282;28;20059;-66
2021/12/12 07:04:53;;;;;;;6.80;5.32;;;;;;;0.69;66.18;99899.53;5106123;28;20060;-66
2021/12/12 07:07:22;;;;;;;8.93;5.65;;;;;;;0.72;66.13;99902.13;5105909;28;20047;-66
2021/12/12 07:09:52;;;;;;;6.88;5.10;;;;;;;0.76;66.43;99901.22;5105876;28;20040;-66
2021/12/12 07:12:23;;;;;;;8.93;6.93;;;;;;;0.77;66.08;99913.41;5106088;28;20047;-66
2021/12/12 07:14:54;;;;;;;7.45;5.47;;;;;;;0.80;66.53;99904.69;5105674;28;20044;-66
2021/12/12 07:17:24;;;;;;;9.20;6.85;;;;;;;0.81;66.46;99909.03;5105888;28;20048;-66
2021/12/12 07:19:54;;;;;;;10.25;6.82;;;;;;;0.83;66.48;99931.63;5106009;28;20047;-66
2021/12/12 07:22:25;;;;;;;10.95;6.82;;;;;;;0.84;66.72;99909.88;5105730;28;20040;-66
2021/12/12 07:24:53;;;;;;;9.65;6.22;;;;;;;0.88;66.80;99908.09;5105854;28;20056;-66
2021/12/12 07:27:23;;;;;;;12.27;6.95;;;;;;;0.89;66.82;99902.88;5106398;28;20035;-66
2021/12/12 07:29:55;;;;;;;9.65;7.20;;;;;;;0.90;66.62;99906.34;5105061;28;20039;-66
2021/12/12 07:32:26;;;;;;;9.30;7.10;;;;;;;0.93;66.56;99901.97;5105442;28;20056;-66
2021/12/12 07:34:54;;;;;;;8.40;6.45;;;;;;;1.01;66.98;99911.50;5105190;28;20054;-66
2021/12/12 07:37:24;;;;;;;11.15;7.25;;;;;;;1.07;66.92;99898.41;5105038;28;20044;-66
2021/12/12 07:39:53;;;;;;;9.45;6.72;;;;;;;1.07;66.80;99904.47;5105808;28;20103;-66
2021/12/12 07:42:23;;;;;;;11.75;7.53;;;;;;;1.09;66.78;99904.47;5105756;28;20070;-66
2021/12/12 07:44:55;;;;;;;11.02;6.97;;;;;;;1.10;66.75;99906.19;5105664;28;20040;-66
2021/12/12 07:47:25;;;;;;;9.23;7.07;;;;;;;1.11;66.60;99907.94;5104828;28;20042;-66
2021/12/12 07:49:54;;;;;;;8.43;5.60;;;;;;;1.13;66.69;99906.19;5105359;28;20351;-66
2021/12/12 07:52:27;;;;;;;9.65;6.13;;;;;;;1.13;66.62;99904.44;5105538;28;20044;-66
2021/12/12 07:54:56;;;;;;;8.45;6.38;;;;;;;1.15;66.87;99914.84;5104008;28;20082;-66
2021/12/12 07:57:26;;;;;;;9.98;6.55;;;;;;;0.97;67.01;99883.69;5104998;28;20334;-66
2021/12/12 07:59:55;;;;;;;9.15;6.07;;;;;;;1.19;66.94;99921.78;5105408;28;20040;-66
2021/12/12 08:02:26;;;;;;;9.57;6.18;;;;;;;1.18;66.47;99930.50;5105156;28;20231;-66
2021/12/12 08:04:56;;;;;;;8.45;5.90;;;;;;;1.21;66.54;99939.19;5105665;28;20052;-66
2021/12/12 08:07:25;;;;;;;8.70;5.22;;;;;;;1.23;66.83;99937.41;5105177;28;20284;-66
2021/12/12 08:09:55;;;;;;;10.23;6.25;;;;;;;1.25;66.80;99945.25;5106743;28;20028;-66
2021/12/12 08:12:28;;;;;;;7.05;4.95;;;;;;;0.35;66.44;99797.19;5109544;28;20227;-66
2021/12/12 08:15:04;;;;;;;8.48;5.97;;;;;;;1.29;66.50;99949.56;5068999;28;20086;-66
2021/12/12 08:17:40;;;;;;;8.43;5.65;;;;;;;1.34;66.65;99946.91;5069079;28;20083;-67
2021/12/12 08:20:14;;;;;;;6.82;5.43;;;;;;;1.36;66.64;99945.16;5069006;28;20053;-66
2021/12/12 08:22:49;;;;;;;9.70;6.55;;;;;;;0.46;66.71;99799.72;5068720;28;20087;-66
2021/12/12 08:25:21;;;;;;;8.25;5.22;;;;;;;1.41;66.45;99948.59;5068087;28;20090;-66
2021/12/12 08:27:55;;;;;;;10.18;6.00;;;;;;;1.40;66.32;99945.09;5068917;28;20049;-66
2021/12/12 08:30:30;;;;;;;8.38;6.32;;;;;;;1.41;66.45;99951.19;5068600;28;20351;-66
2021/12/12 08:33:05;;;;;;;7.85;6.03;;;;;;;1.21;66.22;99946.13;5068819;28;20099;-66
2021/12/12 08:35:38;;;;;;;7.85;6.10;;;;;;;1.41;66.38;99954.69;5068645;28;20041;-66
2021/12/12 08:38:12;;;;;;;9.35;6.32;;;;;;;0.85;66.23;99859.41;5068431;28;20067;-66
2021/12/12 08:40:47;;;;;;;7.17;5.07;;;;;;;1.38;66.19;99953.84;5068709;28;20037;-66
2021/12/12 08:43:22;;;;;;;9.25;6.82;;;;;;;1.38;66.53;99957.31;5068587;28;20071;-66
2021/12/12 08:45:56;;;;;;;;;;;;;;;1.37;65.85;99955.59;5068694;28;20103;-67
2021/12/12 08:48:32;;;;;;;8.13;5.63;;;;;;;1.39;66.33;99955.56;5067545;28;19916;-66
2021/12/12 08:51:07;;;;;;;8.63;5.90;;;;;;;1.41;66.32;99941.63;5068216;28;20135;-66
2021/12/12 08:53:39;;;;;;;;;;;;;;;1.41;65.73;99949.47;5068631;28;20055;-66
2021/12/12 08:56:19;;;;;;;8.80;6.00;;;;;;;1.06;66.34;99888.84;5068335;28;19916;-66
2021/12/12 08:58:53;;;;;;;9.18;6.65;;;;;;;1.49;66.12;99931.97;5068136;28;20041;-66
2021/12/12 09:01:26;;;;;;;9.48;5.90;;;;;;;1.49;65.94;99958.09;5068056;28;20041;-66
2021/12/12 09:04:02;;;;;;;7.80;6.28;;;;;;;1.50;65.77;99948.50;5068284;28;20044;-66
2021/12/12 09:06:38;;;;;;;10.52;7.30;;;;;;;1.28;65.98;99911.28;5067315;28;20167;-67
2021/12/12 09:09:15;;;;;;;11.82;6.40;;;;;;;1.56;65.73;99948.44;5067776;28;20384;-66
2021/12/12 09:11:53;;;;;;;9.38;6.53;;;;;;;1.55;65.68;99941.50;5067709;28;20086;-66
2021/12/12 09:14:31;;;;;;;7.40;6.00;;;;;;;1.57;65.78;99937.97;5100151;28;20059;-66
2021/12/12 09:17:09;;;;;;;9.15;6.53;;;;;;;1.60;65.62;99942.34;5108159;28;20065;-66
2021/12/12 09:19:49;;;;;;;7.30;5.88;;;;;;;1.65;65.46;99939.69;5108033;28;20053;-66
2021/12/12 09:22:27;;;;;;;11.73;7.43;;;;;;;1.65;65.79;99937.94;5106940;28;20040;-66
2021/12/12 09:25:01;;;;;;;7.70;6.15;;;;;;;1.70;65.34;99940.50;5107730;28;20040;-66
2021/12/12 09:27:37;;;;;;;8.15;5.43;;;;;;;1.75;65.36;99936.09;5107041;28;20091;-67
2021/12/12 09:30:12;;;;;;;9.10;6.63;;;;;;;1.76;65.14;99941.31;5107830;28;20040;-67
2021/12/12 09:32:49;;;;;;;;;;;;;;;1.75;64.80;99931.75;5108249;28;20040;-65
2021/12/12 09:35:26;;;;;;;8.75;6.55;;;;;;;1.82;65.29;99932.53;5107733;28;20172;-66
2021/12/12 09:38:05;;;;;;;8.52;6.45;;;;;;;1.91;65.62;99929.84;5107907;28;20044;-66
2021/12/12 09:40:57;;;;;;;9.18;6.88;;;;;;;1.99;65.23;99932.38;5107554;28;20089;-66
2021/12/12 09:43:44;;;;;;;10.27;7.35;;;;;;;2.12;65.45;99933.94;5107307;28;20061;-66
2021/12/12 09:46:30;;;;;;;14.82;7.72;;;;;;;2.20;65.30;99932.97;5107196;28;20185;-66
2021/12/12 09:52:52;;;;;;;8.80;7.38;;;;;;;2.29;64.88;99938.97;5106691;28;20055;-66
2021/12/12 09:55:29;;;;;;;9.65;7.25;;;;;;;2.29;65.02;99932.00;5107399;28;20040;-66
2021/12/12 09:58:05;;;;;;;9.77;7.47;;;;;;;2.03;65.38;99893.09;5107644;28;20048;-66
2021/12/12 10:00:44;;;;;;;10.23;7.15;;;;;;;2.34;65.13;99940.66;5107523;28;20292;-66
2021/12/12 10:03:23;;;;;;;10.77;8.25;;;;;;;2.35;65.35;99942.38;5107241;28;20111;-66
2021/12/12 10:06:02;;;;;;;11.32;7.72;;;;;;;2.36;65.26;99944.13;5107141;28;20085;-67
2021/12/12 10:08:54;;;;;;;12.02;8.23;;;;;;;2.41;65.11;99941.44;5107093;28;20066;-67
2021/12/12 10:11:36;;;;;;;9.15;7.43;;;;;;;2.47;65.22;99949.22;5106743;28;20242;-67
2021/12/12 10:14:14;;;;;;;9.82;6.80;;;;;;;2.47;65.32;99942.22;5106741;28;20056;-67
2021/12/12 10:16:56;;;;;;;10.15;7.72;;;;;;;2.48;65.55;99940.47;5107241;28;20052;-66
2021/12/12 10:19:33;;;;;;;11.20;7.93;;;;;;;2.49;65.63;99932.59;5107143;28;20055;-67
2021/12/12 10:22:20;;;;;;;8.20;6.30;;;;;;;2.46;65.18;99944.88;5106970;28;20040;-66
2021/12/12 10:25:00;;;;;;;13.82;7.60;;;;;;;2.27;65.12;99918.06;5107108;28;20039;-66
2021/12/12 10:27:34;;;;;;;9.43;7.40;;;;;;;2.48;65.39;99945.72;5105848;28;20056;-67
2021/12/12 10:30:10;;;;;;;10.18;7.30;;;;;;;2.48;65.56;99945.72;5106204;28;20040;-67
2021/12/12 10:32:52;;;;;;;10.52;7.25;;;;;;;2.56;65.45;99949.09;5106334;28;20036;-67
2021/12/12 10:35:31;;;;;;;11.68;7.22;;;;;;;2.76;65.47;99944.44;5106432;28;20231;-67
2021/12/12 10:38:09;;;;;;;10.88;8.55;;;;;;;3.07;64.74;99938.75;5106366;28;20040;-67
2021/12/12 10:40:55;;;;;;;10.20;8.23;;;;;;;3.01;64.01;99894.34;5106614;28;20141;-67
2021/12/12 10:43:45;;;;;;;10.75;6.82;;;;;;;3.35;63.15;99895.50;5106612;28;20086;-67
2021/12/12 10:46:22;;;;;;;9.07;5.97;;;;;;;3.79;62.70;99943.63;5106507;28;20241;-67
2021/12/12 10:49:03;;;;;;;10.57;7.75;;;;;;;4.04;62.28;99936.19;5106249;28;20036;-67
2021/12/12 10:51:40;;;;;;;11.23;6.50;;;;;;;4.31;61.38;99943.53;5106308;28;20288;-66
2021/12/12 10:54:15;;;;;;;9.60;6.82;;;;;;;4.29;61.62;99941.84;5106333;28;20040;-67
2021/12/12 10:56:56;;;;;;;12.70;8.25;;;;;;;4.11;60.69;99904.53;5106294;28;20048;-67
2021/12/12 10:59:31;;;;;;;10.10;7.38;;;;;;;4.23;61.20;99899.97;5106224;28;20047;-67
2021/12/12 11:02:05;;;;;;;;;;;;;;;4.64;60.01;99939.34;5106455;28;20231;-67
2021/12/12 11:04:41;;;;;;;9.60;7.00;;;;;;;4.76;60.24;99936.44;5105956;28;20111;-67
2021/12/12 11:07:19;;;;;;;9.65;7.35;;;;;;;4.91;59.99;99937.03;5106206;28;20040;-67
2021/12/12 11:10:00;;;;;;;10.70;7.88;;;;;;;5.06;59.50;99944.53;5105947;28;20040;-67
2021/12/12 11:12:39;;;;;;;10.52;6.65;;;;;;;5.06;59.19;99944.53;5105833;28;20304;-67
2021/12/12 11:15:14;;;;;;;9.55;6.75;;;;;;;5.07;60.00;99938.41;5106090;28;20227;-67
2021/12/12 11:17:51;;;;;;;;;;;;;;;4.91;58.45;99940.50;5106238;28;20254;-67
2021/12/12 11:20:27;;;;;;;10.05;7.13;;;;;;;4.84;60.35;99945.91;5106022;28;19973;-67
2021/12/12 11:23:03;;;;;;;10.48;7.75;;;;;;;4.89;60.19;99944.03;5105688;28;20040;-67
2021/12/12 11:25:47;;;;;;;10.63;7.97;;;;;;;4.86;60.42;99916.09;5105793;28;20048;-67
2021/12/12 11:28:24;;;;;;;9.10;7.30;;;;;;;5.24;59.56;99945.88;5105776;28;20036;-67
2021/12/12 11:31:01;;;;;;;11.52;8.60;;;;;;;5.41;59.09;99951.59;5105497;28;20039;-67
2021/12/12 11:33:35;;;;;;;10.13;7.65;;;;;;;5.22;59.09;99893.34;5105594;28;20036;-67
2021/12/12 11:36:12;;;;;;;10.57;8.68;;;;;;;5.53;59.43;99951.28;5105791;28;20039;-67
2021/12/12 11:38:51;;;;;;;9.90;7.65;;;;;;;5.57;58.49;99942.41;5105566;28;20047;-67
2021/12/12 11:41:34;;;;;;;10.55;7.63;;;;;;;5.66;57.88;99954.47;5105418;28;20058;-67
2021/12/12 11:44:23;;;;;;;10.82;8.48;;;;;;;5.74;57.55;99947.22;5104897;28;20044;-67
2021/12/12 11:47:11;;;;;;;11.15;7.18;;;;;;;5.83;58.54;99941.72;5105632;28;20070;-67
2021/12/12 11:49:51;;;;;;;13.57;8.07;;;;;;;5.89;58.87;99941.56;5104785;28;20066;-67
2021/12/12 11:52:44;;;;;;;10.20;7.57;;;;;;;6.10;57.87;99940.97;5105234;28;20106;-68
2021/12/12 11:55:21;;;;;;;10.45;8.07;;;;;;;6.07;57.90;99937.56;5104345;28;20086;-68
2021/12/12 11:58:03;;;;;;;9.68;7.38;;;;;;;6.00;57.85;99942.16;5105262;28;20048;-68
2021/12/12 12:00:41;;;;;;;11.05;8.15;;;;;;;6.10;58.01;99930.47;5104664;28;20036;-68
2021/12/12 12:03:24;;;;;;;9.85;7.18;;;;;;;5.95;57.55;99898.44;5105091;28;20047;-67
2021/12/12 12:06:20;;;;;;;11.82;8.32;;;;;;;6.22;56.10;99928.38;5105253;28;20036;-67
2021/12/12 12:09:12;;;;;;;12.63;8.15;;;;;;;6.32;56.05;99925.44;5105358;28;20040;-68
2021/12/12 12:12:01;;;;;;;9.07;6.97;;;;;;;6.28;56.00;99917.69;5105451;28;20294;-67
2021/12/12 12:14:46;;;;;;;8.65;6.72;;;;;;;5.30;56.57;99762.63;5104927;28;20362;-67
2021/12/12 12:17:27;;;;;;;9.88;7.13;;;;;;;6.07;56.19;99922.66;5105006;28;20048;-67
2021/12/12 12:20:10;;;;;;;11.70;8.20;;;;;;;6.18;56.35;99910.97;5105233;28;20040;-67
2021/12/12 12:22:47;;;;;;;10.20;6.93;;;;;;;5.86;56.77;99890.81;5105254;28;20044;-68
2021/12/12 12:25:27;;;;;;;11.05;7.78;;;;;;;5.93;56.75;99903.75;5105027;28;20291;-68
2021/12/12 12:28:05;;;;;;;10.27;8.27;;;;;;;6.04;57.07;99908.72;5105197;28;20285;-67
2021/12/12 12:31:10;;;;;;;11.85;8.63;;;;;;;5.95;55.90;99909.81;5104392;28;20086;-68
2021/12/12 12:34:38;;;;;;;10.80;7.05;;;;;;;5.83;56.19;99898.78;5081823;28;20052;-68
2021/12/12 12:37:47;;;;;;;11.18;7.13;;;;;;;5.71;56.50;99902.59;5104709;28;20288;-67
2021/12/12 12:40:59;;;;;;;10.05;6.95;;;;;;;5.60;56.99;99905.53;5105010;28;20117;-67
2021/12/12 12:44:15;;;;;;;12.23;7.03;;;;;;;5.47;57.34;99900.63;5104670;28;20044;-68